createdAt,value
2018-10-19T00:00:19.534Z,1028.69
2018-10-19T00:01:46.783Z,1028.70
2018-10-19T00:03:14.118Z,1028.69
2018-10-19T00:04:41.238Z,1028.66
2018-10-19T00:06:08.264Z,1028.65
2018-10-19T00:07:35.718Z,1028.65
2018-10-19T00:09:03.037Z,1028.66
2018-10-19T00:10:30.317Z,1028.65
2018-10-19T00:11:57.491Z,1028.65
2018-10-19T00:13:24.727Z,1028.68
2018-10-19T00:14:51.869Z,1028.67
2018-10-19T00:16:19.037Z,1028.68
2018-10-19T00:17:46.034Z,1028.67
2018-10-19T00:19:13.372Z,1028.67
2018-10-19T00:20:40.426Z,1028.67
2018-10-19T00:22:07.729Z,1028.65
2018-10-19T00:23:35.187Z,1028.64
2018-10-19T00:25:02.318Z,1028.64
2018-10-19T00:26:29.494Z,1028.61
2018-10-19T00:27:56.590Z,1028.59
2018-10-19T00:29:23.841Z,1028.60
2018-10-19T00:30:51.162Z,1028.59
2018-10-19T00:32:18.353Z,1028.58
2018-10-19T00:33:45.688Z,1028.59
2018-10-19T00:35:12.870Z,1028.60
2018-10-19T00:36:39.978Z,1028.62
2018-10-19T00:38:07.148Z,1028.63
2018-10-19T00:39:34.452Z,1028.66
2018-10-19T00:41:01.517Z,1028.69
2018-10-19T00:42:28.751Z,1028.70
2018-10-19T00:43:55.961Z,1028.69
2018-10-19T00:45:23.269Z,1028.66
2018-10-19T00:46:50.518Z,1028.65
2018-10-19T00:48:17.688Z,1028.63
2018-10-19T00:49:45.056Z,1028.63
2018-10-19T00:51:12.409Z,1028.59
2018-10-19T00:52:39.400Z,1028.58
2018-10-19T00:54:06.709Z,1028.60
2018-10-19T00:55:33.953Z,1028.56
2018-10-19T00:57:01.186Z,1028.57
2018-10-19T00:58:28.468Z,1028.60
2018-10-19T00:59:55.709Z,1028.59
2018-10-19T01:01:22.953Z,1028.59
2018-10-19T01:02:50.105Z,1028.56
2018-10-19T01:04:17.112Z,1028.54
2018-10-19T01:05:44.343Z,1028.53
2018-10-19T01:07:11.422Z,1028.50
2018-10-19T01:08:38.354Z,1028.51
2018-10-19T01:10:05.569Z,1028.51
2018-10-19T01:11:32.659Z,1028.51
2018-10-19T01:12:59.653Z,1028.50
2018-10-19T01:14:26.988Z,1028.50
2018-10-19T01:15:54.066Z,1028.52
2018-10-19T01:17:21.167Z,1028.49
2018-10-19T01:18:48.369Z,1028.48
2018-10-19T01:20:15.298Z,1028.52
2018-10-19T01:21:42.713Z,1028.50
2018-10-19T01:23:09.863Z,1028.50
2018-10-19T01:24:37.058Z,1028.51
2018-10-19T01:26:04.214Z,1028.50
2018-10-19T01:27:31.222Z,1028.49
2018-10-19T01:28:58.655Z,1028.45
2018-10-19T01:30:25.640Z,1028.44
2018-10-19T01:31:52.931Z,1028.46
2018-10-19T01:33:20.090Z,1028.47
2018-10-19T01:34:47.258Z,1028.47
2018-10-19T01:36:14.520Z,1028.47
2018-10-19T01:37:41.734Z,1028.49
2018-10-19T01:39:09.064Z,1028.49
2018-10-19T01:40:36.202Z,1028.49
2018-10-19T01:42:03.353Z,1028.50
2018-10-19T01:43:30.642Z,1028.52
2018-10-19T01:44:57.863Z,1028.49
2018-10-19T01:46:28.023Z,1028.48
2018-10-19T01:47:52.157Z,1028.47
2018-10-19T01:49:19.209Z,1028.45
2018-10-19T01:50:46.329Z,1028.44
2018-10-19T01:52:13.492Z,1028.46
2018-10-19T01:53:40.676Z,1028.47
2018-10-19T01:55:07.938Z,1028.48
2018-10-19T01:56:35.212Z,1028.51
2018-10-19T01:58:02.358Z,1028.50
2018-10-19T01:59:29.666Z,1028.49
2018-10-19T02:00:56.793Z,1028.46
2018-10-19T02:02:23.996Z,1028.47
2018-10-19T02:03:51.204Z,1028.49
2018-10-19T02:05:18.234Z,1028.51
2018-10-19T02:06:45.344Z,1028.55
2018-10-19T02:08:12.696Z,1028.57
2018-10-19T02:09:39.798Z,1028.56
2018-10-19T02:11:07.052Z,1028.54
2018-10-19T02:12:34.109Z,1028.51
2018-10-19T02:14:01.022Z,1028.50
2018-10-19T02:15:28.309Z,1028.51
2018-10-19T02:16:55.374Z,1028.50
2018-10-19T02:18:22.566Z,1028.50
2018-10-19T02:19:49.841Z,1028.51
2018-10-19T02:21:16.864Z,1028.51
2018-10-19T02:22:44.097Z,1028.53
2018-10-19T02:24:11.445Z,1028.55
2018-10-19T02:25:38.520Z,1028.53
2018-10-19T02:27:05.791Z,1028.54
2018-10-19T02:28:32.909Z,1028.52
2018-10-19T02:30:00.147Z,1028.51
2018-10-19T02:31:27.376Z,1028.52
2018-10-19T02:32:54.580Z,1028.55
2018-10-19T02:34:21.634Z,1028.59
2018-10-19T02:35:48.790Z,1028.60
2018-10-19T02:37:15.758Z,1028.59
2018-10-19T02:38:42.825Z,1028.60
2018-10-19T02:40:09.963Z,1028.59
2018-10-19T02:41:37.054Z,1028.57
2018-10-19T02:43:04.323Z,1028.56
2018-10-19T02:44:31.512Z,1028.59
2018-10-19T02:45:58.540Z,1028.59
2018-10-19T02:47:25.801Z,1028.62
2018-10-19T02:48:52.703Z,1028.63
2018-10-19T02:50:19.848Z,1028.63
2018-10-19T02:51:46.904Z,1028.63
2018-10-19T02:53:14.123Z,1028.61
2018-10-19T02:54:41.007Z,1028.59
2018-10-19T02:56:08.243Z,1028.60
2018-10-19T02:57:35.411Z,1028.58
2018-10-19T02:59:02.717Z,1028.60
2018-10-19T03:00:29.696Z,1028.58
2018-10-19T03:01:56.903Z,1028.57
2018-10-19T03:03:23.990Z,1028.55
2018-10-19T03:04:51.131Z,1028.53
2018-10-19T03:06:18.442Z,1028.54
2018-10-19T03:07:45.449Z,1028.55
2018-10-19T03:09:12.773Z,1028.56
2018-10-19T03:10:39.972Z,1028.56
2018-10-19T03:12:07.062Z,1028.53
2018-10-19T03:13:34.044Z,1028.53
2018-10-19T03:15:01.408Z,1028.53
2018-10-19T03:16:28.382Z,1028.54
2018-10-19T03:17:55.621Z,1028.54
2018-10-19T03:19:22.947Z,1028.56
2018-10-19T03:20:49.970Z,1028.58
2018-10-19T03:22:17.045Z,1028.59
2018-10-19T03:23:44.206Z,1028.60
2018-10-19T03:25:11.381Z,1028.62
2018-10-19T03:26:38.521Z,1028.61
2018-10-19T03:28:05.607Z,1028.62
2018-10-19T03:29:32.913Z,1028.61
2018-10-19T03:31:00.158Z,1028.61
2018-10-19T03:32:27.222Z,1028.62
2018-10-19T03:33:54.307Z,1028.61
2018-10-19T03:35:21.517Z,1028.60
2018-10-19T03:36:48.716Z,1028.63
2018-10-19T03:38:15.932Z,1028.65
2018-10-19T03:39:43.078Z,1028.63
2018-10-19T03:41:10.390Z,1028.60
2018-10-19T03:42:37.575Z,1028.60
2018-10-19T03:44:04.355Z,1028.60
2018-10-19T03:45:31.577Z,1028.59
2018-10-19T03:46:58.772Z,1028.59
2018-10-19T03:48:25.829Z,1028.59
2018-10-19T03:49:52.951Z,1028.59
2018-10-19T03:51:20.231Z,1028.59
2018-10-19T03:52:47.227Z,1028.60
2018-10-19T03:54:14.365Z,1028.58
2018-10-19T03:55:41.589Z,1028.59
2018-10-19T03:57:08.870Z,1028.58
2018-10-19T03:58:35.794Z,1028.57
2018-10-19T04:00:02.847Z,1028.59
2018-10-19T04:01:29.943Z,1028.61
2018-10-19T04:02:57.165Z,1028.63
2018-10-19T04:04:24.348Z,1028.63
2018-10-19T04:05:51.197Z,1028.62
2018-10-19T04:07:18.266Z,1028.58
2018-10-19T04:08:45.245Z,1028.57
2018-10-19T04:10:12.310Z,1028.58
2018-10-19T04:11:39.397Z,1028.59
2018-10-19T04:13:06.671Z,1028.59
2018-10-19T04:14:33.948Z,1028.57
2018-10-19T04:16:00.969Z,1028.59
2018-10-19T04:17:28.071Z,1028.60
2018-10-19T04:18:55.335Z,1028.57
2018-10-19T04:20:22.691Z,1028.55
2018-10-19T04:21:49.617Z,1028.51
2018-10-19T04:23:17.114Z,1028.51
2018-10-19T04:24:43.943Z,1028.53
2018-10-19T04:26:14.064Z,1028.56
2018-10-19T04:27:38.372Z,1028.55
2018-10-19T04:29:05.474Z,1028.56
2018-10-19T04:30:32.633Z,1028.57
2018-10-19T04:31:59.983Z,1028.59
2018-10-19T04:33:26.873Z,1028.61
2018-10-19T04:34:53.989Z,1028.63
2018-10-19T04:36:21.290Z,1028.63
2018-10-19T04:37:48.417Z,1028.64
2018-10-19T04:39:15.756Z,1028.64
2018-10-19T04:40:42.897Z,1028.64
2018-10-19T04:42:10.052Z,1028.65
2018-10-19T04:43:37.137Z,1028.67
2018-10-19T04:45:04.415Z,1028.69
2018-10-19T04:46:31.568Z,1028.70
2018-10-19T04:47:58.823Z,1028.70
2018-10-19T04:49:25.923Z,1028.70
2018-10-19T04:50:53.058Z,1028.68
2018-10-19T04:52:20.149Z,1028.67
2018-10-19T04:53:47.494Z,1028.74
2018-10-19T04:55:14.519Z,1028.74
2018-10-19T04:56:41.698Z,1028.76
2018-10-19T04:58:08.793Z,1028.76
2018-10-19T04:59:36.025Z,1028.75
2018-10-19T05:01:03.168Z,1028.73
2018-10-19T05:02:30.200Z,1028.74
2018-10-19T05:03:57.110Z,1028.76
2018-10-19T05:05:24.536Z,1028.78
2018-10-19T05:06:51.563Z,1028.78
2018-10-19T05:08:18.565Z,1028.78
2018-10-19T05:09:45.513Z,1028.80
2018-10-19T05:11:12.840Z,1028.85
2018-10-19T05:12:40.120Z,1028.88
2018-10-19T05:14:07.162Z,1028.94
2018-10-19T05:15:33.952Z,1028.91
2018-10-19T05:17:01.052Z,1028.92
2018-10-19T05:18:28.100Z,1028.91
2018-10-19T05:19:55.312Z,1028.93
2018-10-19T05:21:22.661Z,1028.93
2018-10-19T05:22:49.712Z,1028.92
2018-10-19T05:24:16.854Z,1028.92
2018-10-19T05:25:43.927Z,1028.93
2018-10-19T05:27:10.959Z,1028.94
2018-10-19T05:28:38.237Z,1028.97
2018-10-19T05:30:05.400Z,1028.96
2018-10-19T05:31:32.724Z,1028.97
2018-10-19T05:33:00.018Z,1028.99
2018-10-19T05:34:27.168Z,1029.00
2018-10-19T05:35:54.469Z,1029.00
2018-10-19T05:37:21.572Z,1029.00
2018-10-19T05:38:48.694Z,1029.03
2018-10-19T05:40:15.815Z,1029.02
2018-10-19T05:41:43.032Z,1029.06
2018-10-19T05:43:10.240Z,1029.08
2018-10-19T05:44:37.304Z,1029.08
2018-10-19T05:46:04.548Z,1029.06
2018-10-19T05:47:31.731Z,1029.05
2018-10-19T05:48:58.801Z,1029.07
2018-10-19T05:50:25.877Z,1029.09
2018-10-19T05:51:52.968Z,1029.10
2018-10-19T05:53:19.877Z,1029.13
2018-10-19T05:54:46.819Z,1029.13
2018-10-19T05:56:13.872Z,1029.15
2018-10-19T05:57:40.849Z,1029.17
2018-10-19T05:59:07.891Z,1029.16
2018-10-19T06:00:34.977Z,1029.16
2018-10-19T06:02:02.268Z,1029.15
2018-10-19T06:03:29.313Z,1029.17
2018-10-19T06:04:56.661Z,1029.19
2018-10-19T06:06:23.764Z,1029.21
2018-10-19T06:07:50.738Z,1029.22
2018-10-19T06:09:17.801Z,1029.25
2018-10-19T06:10:44.872Z,1029.25
2018-10-19T06:12:11.975Z,1029.27
2018-10-19T06:13:39.288Z,1029.28
2018-10-19T06:15:06.537Z,1029.33
2018-10-19T06:16:33.599Z,1029.35
2018-10-19T06:18:00.732Z,1029.34
2018-10-19T06:19:27.597Z,1029.34
2018-10-19T06:20:54.730Z,1029.36
2018-10-19T06:22:21.764Z,1029.35
2018-10-19T06:23:48.777Z,1029.36
2018-10-19T06:25:15.941Z,1029.35
2018-10-19T06:26:43.090Z,1029.36
2018-10-19T06:28:10.305Z,1029.38
2018-10-19T06:29:37.704Z,1029.38
2018-10-19T06:31:04.807Z,1029.40
2018-10-19T06:32:31.895Z,1029.44
2018-10-19T06:33:58.942Z,1029.45
2018-10-19T06:35:26.157Z,1029.47
2018-10-19T06:36:53.187Z,1029.47
2018-10-19T06:38:20.306Z,1029.49
2018-10-19T06:39:47.450Z,1029.53
2018-10-19T06:41:14.600Z,1029.54
2018-10-19T06:42:41.384Z,1029.54
2018-10-19T06:44:08.501Z,1029.55
2018-10-19T06:45:35.631Z,1029.56
2018-10-19T06:56:15.049Z,1029.42
2018-10-19T06:57:41.691Z,1029.41
2018-10-19T06:59:08.892Z,1029.44
2018-10-19T07:00:35.900Z,1029.45
2018-10-19T07:02:03.103Z,1029.44
2018-10-19T09:42:16.813Z,1029.42
2018-10-19T09:43:43.510Z,1029.42
2018-10-19T09:45:10.589Z,1029.44
2018-10-19T09:46:37.709Z,1029.44
2018-10-19T09:48:04.904Z,1029.43
2018-10-19T09:49:32.147Z,1029.44
2018-10-19T09:50:59.725Z,1029.43
2018-10-19T09:52:26.816Z,1029.44
2018-10-19T09:53:54.286Z,1029.43
2018-10-19T09:55:21.800Z,1029.43
2018-10-19T09:56:49.014Z,1029.41
2018-10-19T09:58:16.324Z,1029.43
2018-10-19T09:59:43.693Z,1029.45
2018-10-19T10:01:10.975Z,1029.45
2018-10-19T10:02:38.212Z,1029.43
2018-10-19T10:04:05.544Z,1029.38
2018-10-19T10:05:32.889Z,1029.38
2018-10-19T10:07:00.262Z,1029.39
2018-10-19T10:08:27.497Z,1029.37
2018-10-19T10:09:54.666Z,1029.34
2018-10-19T10:11:21.850Z,1029.33
2018-10-19T10:12:49.065Z,1029.31
2018-10-19T10:14:16.467Z,1029.33
2018-10-19T10:15:43.820Z,1029.32
2018-10-19T10:17:11.307Z,1029.35
2018-10-19T10:18:38.417Z,1029.36
2018-10-19T10:20:05.738Z,1029.35
2018-10-19T10:21:33.025Z,1029.35
2018-10-19T10:23:03.253Z,1029.34
2018-10-19T10:24:27.458Z,1029.34
2018-10-19T10:25:54.744Z,1029.35
2018-10-19T10:27:25.066Z,1029.35
2018-10-19T10:28:49.315Z,1029.32
2018-10-19T10:30:16.817Z,1029.30
2018-10-19T10:31:44.281Z,1029.29
2018-10-19T10:33:11.625Z,1029.28
2018-10-19T10:34:38.912Z,1029.27
2018-10-19T10:36:06.318Z,1029.29
2018-10-19T10:37:33.517Z,1029.29
2018-10-19T10:39:00.921Z,1029.32
2018-10-19T10:40:28.106Z,1029.32
2018-10-19T10:41:55.477Z,1029.35
2018-10-19T10:43:22.781Z,1029.33
2018-10-19T10:44:50.141Z,1029.34
2018-10-19T10:46:17.474Z,1029.31
2018-10-19T10:47:44.792Z,1029.33
2018-10-19T10:49:12.118Z,1029.33
2018-10-19T10:50:39.502Z,1029.32
2018-10-19T10:52:06.952Z,1029.29
2018-10-19T10:53:34.184Z,1029.28
2018-10-19T10:55:01.386Z,1029.26
2018-10-19T10:56:28.647Z,1029.25
2018-10-19T10:57:56.071Z,1029.27
2018-10-19T10:59:23.438Z,1029.28
2018-10-19T11:00:50.667Z,1029.26
2018-10-19T11:02:18.016Z,1029.26
2018-10-19T11:03:45.403Z,1029.26
2018-10-19T11:05:12.839Z,1029.23
2018-10-19T11:06:40.070Z,1029.21
2018-10-19T11:08:07.328Z,1029.21
2018-10-19T11:09:34.628Z,1029.19
2018-10-19T11:11:01.854Z,1029.18
2018-10-19T11:12:29.050Z,1029.15
2018-10-19T11:13:56.264Z,1029.13
2018-10-19T11:15:23.560Z,1029.11
2018-10-19T11:16:50.749Z,1029.11
2018-10-19T11:18:18.003Z,1029.12
2018-10-19T11:19:45.363Z,1029.12
2018-10-19T11:21:13.175Z,1029.15
2018-10-19T11:22:40.325Z,1029.14
2018-10-19T11:24:07.734Z,1029.17
2018-10-19T11:25:34.955Z,1029.15
2018-10-19T11:27:02.282Z,1029.09
2018-10-19T11:28:29.614Z,1029.03
2018-10-19T11:29:57.028Z,1028.97
2018-10-19T11:31:24.522Z,1028.95
2018-10-19T11:32:51.591Z,1028.94
2018-10-19T11:34:18.909Z,1028.90
2018-10-19T11:35:49.278Z,1028.88
2018-10-19T11:37:13.637Z,1028.86
2018-10-19T11:38:41.079Z,1028.82
2018-10-19T11:40:08.610Z,1028.81
2018-10-19T11:41:36.189Z,1028.81
2018-10-19T11:43:03.643Z,1028.77
2018-10-19T11:44:31.168Z,1028.79
2018-10-19T11:45:58.483Z,1028.79
2018-10-19T11:47:25.681Z,1028.79
2018-10-19T11:48:53.181Z,1028.80
2018-10-19T11:50:20.513Z,1028.83
2018-10-19T11:51:47.864Z,1028.83
2018-10-19T11:53:15.250Z,1028.83
2018-10-19T11:54:42.597Z,1028.85
2018-10-19T11:56:09.984Z,1028.86
2018-10-19T11:57:37.350Z,1028.88
2018-10-19T11:59:04.870Z,1028.90
2018-10-19T12:00:32.292Z,1028.93
2018-10-19T12:01:59.737Z,1028.91
2018-10-19T12:03:27.091Z,1028.88
2018-10-19T12:04:54.381Z,1028.88
2018-10-19T12:06:25.039Z,1028.84
2018-10-19T12:07:49.178Z,1028.82
2018-10-19T12:09:16.543Z,1028.83
2018-10-19T12:10:44.132Z,1028.79
2018-10-19T12:12:11.252Z,1028.78
2018-10-19T12:13:38.851Z,1028.78
2018-10-19T12:15:06.326Z,1028.79
2018-10-19T12:16:33.390Z,1028.79
2018-10-19T12:18:00.613Z,1028.79
2018-10-19T12:19:28.062Z,1028.81
2018-10-19T12:20:55.499Z,1028.80
2018-10-19T12:22:22.761Z,1028.83
2018-10-19T12:23:50.233Z,1028.80
2018-10-19T12:25:17.644Z,1028.76
2018-10-19T12:26:44.840Z,1028.73
2018-10-19T12:28:12.205Z,1028.71
2018-10-19T12:29:39.586Z,1028.70
2018-10-19T12:31:07.151Z,1028.69
2018-10-19T12:32:34.342Z,1028.69
2018-10-19T12:34:01.682Z,1028.67
2018-10-19T12:35:29.074Z,1028.67
2018-10-19T12:36:56.458Z,1028.66
2018-10-19T12:38:23.747Z,1028.64
2018-10-19T12:39:51.126Z,1028.55
2018-10-19T12:41:18.646Z,1028.53
2018-10-19T12:42:46.039Z,1028.50
2018-10-19T12:44:13.539Z,1028.47
2018-10-19T12:45:40.981Z,1028.47
2018-10-19T12:47:08.416Z,1028.45
2018-10-19T12:48:35.848Z,1028.44
2018-10-19T12:50:03.046Z,1028.44
2018-10-19T12:51:30.299Z,1028.40
2018-10-19T12:53:00.752Z,1028.34
2018-10-19T12:54:25.257Z,1028.35
2018-10-19T12:55:52.618Z,1028.34
2018-10-19T12:57:20.102Z,1028.32
2018-10-19T12:58:47.352Z,1028.31
2018-10-19T13:00:14.772Z,1028.32
2018-10-19T13:01:42.263Z,1028.33
2018-10-19T13:03:09.751Z,1028.31
2018-10-19T13:04:37.053Z,1028.29
2018-10-19T13:06:04.422Z,1028.25
2018-10-19T13:07:31.806Z,1028.23
2018-10-19T13:08:59.245Z,1028.23
2018-10-19T13:10:26.429Z,1028.25
2018-10-19T13:11:53.743Z,1028.25
2018-10-19T13:13:20.884Z,1028.25
2018-10-19T13:14:48.287Z,1028.24
2018-10-19T13:16:15.780Z,1028.27
2018-10-19T13:17:43.040Z,1028.23
2018-10-19T13:19:10.608Z,1028.18
2018-10-19T13:20:37.733Z,1028.16
2018-10-19T13:22:05.090Z,1028.15
2018-10-19T13:23:32.564Z,1028.16
2018-10-19T13:24:59.970Z,1028.11
2018-10-19T13:26:27.376Z,1028.10
2018-10-19T13:27:54.802Z,1028.12
2018-10-19T13:29:22.313Z,1028.09
2018-10-19T13:30:49.591Z,1028.07
2018-10-19T13:32:17.021Z,1028.03
2018-10-19T13:33:44.336Z,1028.05
2018-10-19T13:35:11.753Z,1028.02
2018-10-19T13:36:39.168Z,1028.02
2018-10-19T13:38:06.304Z,1028.07
2018-10-19T13:39:33.574Z,1028.04
2018-10-19T13:41:01.003Z,1028.01
2018-10-19T13:42:28.352Z,1027.98
2018-10-19T13:43:55.849Z,1027.93
2018-10-19T13:45:23.132Z,1027.92
2018-10-19T13:46:50.468Z,1027.90
2018-10-19T13:48:17.820Z,1027.89
2018-10-19T13:49:45.073Z,1027.89
2018-10-19T13:51:12.623Z,1027.88
2018-10-19T13:52:39.879Z,1027.88
2018-10-19T13:54:07.140Z,1027.91
2018-10-19T13:55:34.368Z,1027.92
2018-10-19T13:57:01.756Z,1027.91
2018-10-19T13:58:29.348Z,1027.91
2018-10-19T13:59:56.688Z,1027.89
2018-10-19T14:01:24.168Z,1027.88
2018-10-19T14:02:51.462Z,1027.91
2018-10-19T14:04:18.783Z,1027.90
2018-10-19T14:05:46.157Z,1027.90
2018-10-19T14:07:13.500Z,1027.90
2018-10-19T14:08:40.662Z,1027.89
2018-10-19T14:10:08.112Z,1027.91
2018-10-19T14:11:35.462Z,1027.88
2018-10-19T14:13:02.998Z,1027.88
2018-10-19T14:14:30.453Z,1027.83
2018-10-19T14:15:57.599Z,1027.82
2018-10-19T14:17:25.043Z,1027.80
2018-10-19T14:18:52.511Z,1027.79
2018-10-19T14:20:20.003Z,1027.81
2018-10-19T14:21:47.250Z,1027.81
2018-10-19T14:23:14.646Z,1027.82
2018-10-19T14:24:41.950Z,1027.80
2018-10-19T14:26:09.371Z,1027.79
2018-10-19T14:27:36.841Z,1027.80
2018-10-19T14:29:04.378Z,1027.80
2018-10-19T14:30:31.571Z,1027.85
2018-10-19T14:31:58.773Z,1027.81
2018-10-19T14:33:26.346Z,1027.81
2018-10-19T14:34:53.611Z,1027.82
2018-10-19T14:36:20.928Z,1027.79
2018-10-19T14:37:48.351Z,1027.75
2018-10-19T14:39:15.729Z,1027.75
2018-10-19T14:40:42.803Z,1027.77
2018-10-19T14:42:10.376Z,1027.79
2018-10-19T14:43:37.377Z,1027.82
2018-10-19T14:45:04.640Z,1027.85
2018-10-19T14:46:31.952Z,1027.86
2018-10-19T14:47:59.266Z,1027.87
2018-10-19T14:49:26.765Z,1027.88
2018-10-19T14:50:54.055Z,1027.88
2018-10-19T14:52:21.455Z,1027.90
2018-10-19T14:53:48.718Z,1027.93
2018-10-19T14:55:15.978Z,1027.94
2018-10-19T14:56:43.398Z,1027.96
2018-10-19T14:58:10.604Z,1027.98
2018-10-19T14:59:38.009Z,1028.01
2018-10-19T15:01:05.354Z,1028.02
2018-10-19T15:02:32.604Z,1028.02
2018-10-19T15:04:00.084Z,1028.01
2018-10-19T15:05:27.381Z,1028.01
2018-10-19T15:06:54.747Z,1028.01
2018-10-19T15:08:22.186Z,1028.00
2018-10-19T15:09:49.658Z,1028.00
2018-10-19T15:11:17.210Z,1027.99
2018-10-19T15:12:44.073Z,1027.97
2018-10-19T15:14:11.417Z,1027.97
2018-10-19T15:15:38.518Z,1027.96
2018-10-19T15:17:05.826Z,1027.99
2018-10-19T15:18:33.214Z,1027.99
2018-10-19T15:20:00.461Z,1028.02
2018-10-19T15:21:27.749Z,1028.02
2018-10-19T15:22:55.009Z,1028.01
2018-10-19T15:24:22.465Z,1027.98
2018-10-19T15:25:49.758Z,1027.98
2018-10-19T15:27:16.872Z,1027.96
2018-10-19T15:28:44.166Z,1027.96
2018-10-19T15:30:11.553Z,1027.95
2018-10-19T15:31:38.852Z,1027.95
2018-10-19T15:33:06.272Z,1027.95
2018-10-19T15:34:33.585Z,1027.95
2018-10-19T15:36:03.872Z,1027.95
2018-10-19T15:37:28.189Z,1027.94
2018-10-19T15:38:55.222Z,1027.98
2018-10-19T15:40:22.523Z,1027.97
2018-10-19T15:41:50.065Z,1027.96
2018-10-19T15:43:17.275Z,1027.91
2018-10-19T15:44:44.637Z,1027.93
2018-10-19T15:46:11.850Z,1027.92
2018-10-19T15:47:39.238Z,1027.92
2018-10-19T15:49:06.665Z,1027.95
2018-10-19T15:50:34.037Z,1027.97
2018-10-19T15:52:01.338Z,1028.01
2018-10-19T15:53:28.408Z,1028.03
2018-10-19T15:54:55.867Z,1028.03
2018-10-19T15:56:23.214Z,1028.08
2018-10-19T15:57:50.342Z,1028.10
2018-10-19T15:59:17.670Z,1028.11
2018-10-19T16:00:45.186Z,1028.11
2018-10-19T16:02:12.651Z,1028.12
2018-10-19T16:03:40.027Z,1028.15
2018-10-19T16:05:07.241Z,1028.15
2018-10-19T16:06:34.572Z,1028.14
2018-10-19T16:08:01.981Z,1028.18
2018-10-19T16:09:29.200Z,1028.18
2018-10-19T16:10:56.579Z,1028.19
2018-10-19T16:12:23.892Z,1028.18
2018-10-19T16:13:51.124Z,1028.20
2018-10-19T16:15:18.419Z,1028.22
2018-10-19T16:16:45.879Z,1028.23
2018-10-19T16:18:13.109Z,1028.23
2018-10-19T16:19:40.164Z,1028.22
2018-10-19T16:21:07.405Z,1028.23
2018-10-19T16:22:34.690Z,1028.23
2018-10-19T16:24:01.943Z,1028.23
2018-10-19T16:25:29.388Z,1028.24
2018-10-19T16:26:56.890Z,1028.27
2018-10-19T16:28:24.340Z,1028.30
2018-10-19T16:29:51.471Z,1028.35
2018-10-19T16:31:18.805Z,1028.34
2018-10-19T16:32:46.036Z,1028.33
2018-10-19T16:34:13.286Z,1028.37
2018-10-19T16:35:40.674Z,1028.36
2018-10-19T16:37:08.020Z,1028.38
2018-10-19T16:38:35.467Z,1028.42
2018-10-19T16:40:02.716Z,1028.44
2018-10-19T16:41:30.130Z,1028.50
2018-10-19T16:42:57.727Z,1028.55
2018-10-19T16:44:24.848Z,1028.58
2018-10-19T16:45:52.225Z,1028.58
2018-10-19T16:47:19.348Z,1028.55
2018-10-19T16:48:46.633Z,1028.55
2018-10-19T16:50:14.018Z,1028.56
2018-10-19T16:51:41.468Z,1028.56
2018-10-19T16:53:08.827Z,1028.59
2018-10-19T16:54:36.079Z,1028.59
2018-10-19T16:56:03.375Z,1028.61
2018-10-19T16:57:30.570Z,1028.63
2018-10-19T16:58:57.801Z,1028.66
2018-10-19T17:00:25.240Z,1028.65
2018-10-19T17:01:52.612Z,1028.66
2018-10-19T17:03:20.020Z,1028.67
2018-10-19T17:04:47.209Z,1028.68
2018-10-19T17:06:14.454Z,1028.68
2018-10-19T17:07:41.561Z,1028.70
2018-10-19T17:09:08.980Z,1028.71
2018-10-19T17:10:36.298Z,1028.72
2018-10-19T17:12:03.771Z,1028.71
2018-10-19T17:13:30.944Z,1028.74
2018-10-19T17:14:58.312Z,1028.77
2018-10-19T17:16:25.442Z,1028.77
2018-10-19T17:17:52.777Z,1028.79
2018-10-19T17:19:20.353Z,1028.83
2018-10-19T17:20:47.386Z,1028.86
2018-10-19T17:22:14.492Z,1028.88
2018-10-19T17:23:41.767Z,1028.89
2018-10-19T17:25:09.171Z,1028.91
2018-10-19T17:26:36.363Z,1028.92
2018-10-19T17:28:03.637Z,1028.97
2018-10-19T17:29:31.038Z,1028.99
2018-10-19T17:30:58.353Z,1028.99
2018-10-19T17:32:25.333Z,1029.01
2018-10-19T17:33:52.926Z,1029.02
2018-10-19T17:35:19.744Z,1029.01
2018-10-19T17:36:46.982Z,1028.96
2018-10-19T17:38:14.193Z,1028.95
2018-10-19T17:39:41.573Z,1028.97
2018-10-19T17:41:08.978Z,1028.98
2018-10-19T17:42:36.307Z,1028.99
2018-10-19T17:44:03.561Z,1029.00
2018-10-19T17:45:30.795Z,1029.05
2018-10-19T17:46:57.965Z,1029.07
2018-10-19T17:48:25.014Z,1029.09
2018-10-19T17:49:52.233Z,1029.12
2018-10-19T17:51:19.618Z,1029.13
2018-10-19T17:52:47.062Z,1029.16
2018-10-19T17:54:14.319Z,1029.17
2018-10-19T17:55:41.352Z,1029.17
2018-10-19T17:57:11.637Z,1029.17
2018-10-19T17:58:35.854Z,1029.19
2018-10-19T18:00:03.243Z,1029.21
2018-10-19T18:01:30.489Z,1029.20
2018-10-19T18:02:57.629Z,1029.19
2018-10-19T18:04:24.998Z,1029.20
2018-10-19T18:05:52.093Z,1029.19
2018-10-19T18:07:19.372Z,1029.19
2018-10-19T18:08:46.571Z,1029.22
2018-10-19T18:10:13.734Z,1029.21
2018-10-19T18:11:41.202Z,1029.21
2018-10-19T18:13:08.477Z,1029.22
2018-10-19T18:14:35.535Z,1029.21
2018-10-19T18:16:02.888Z,1029.21
2018-10-19T18:17:30.130Z,1029.20
2018-10-19T18:18:57.280Z,1029.19
2018-10-19T18:20:24.611Z,1029.19
2018-10-19T18:21:52.106Z,1029.19
2018-10-19T18:23:19.429Z,1029.21
2018-10-19T18:24:46.680Z,1029.24
2018-10-19T18:26:14.006Z,1029.26
2018-10-19T18:27:41.077Z,1029.27
2018-10-19T18:29:08.665Z,1029.27
2018-10-19T18:30:35.674Z,1029.28
2018-10-19T18:32:03.172Z,1029.29
2018-10-19T18:33:30.454Z,1029.30
2018-10-19T18:34:57.693Z,1029.31
2018-10-19T18:36:24.775Z,1029.30
2018-10-19T18:37:52.084Z,1029.28
2018-10-19T18:39:19.273Z,1029.27
2018-10-19T18:40:46.517Z,1029.25
2018-10-19T18:42:13.842Z,1029.25
2018-10-19T18:43:41.141Z,1029.26
2018-10-19T18:45:08.441Z,1029.28
2018-10-19T18:46:35.640Z,1029.31
2018-10-19T18:48:02.977Z,1029.28
2018-10-19T18:49:30.260Z,1029.29
2018-10-19T18:50:57.518Z,1029.26
2018-10-19T18:52:24.873Z,1029.26
2018-10-19T18:53:52.309Z,1029.27
2018-10-19T18:55:19.583Z,1029.30
2018-10-19T18:56:46.892Z,1029.35
2018-10-19T18:58:14.271Z,1029.38
2018-10-19T18:59:41.522Z,1029.38
2018-10-19T19:01:08.736Z,1029.38
2018-10-19T19:02:36.069Z,1029.39
2018-10-19T19:04:03.307Z,1029.40
2018-10-19T19:05:30.609Z,1029.39
2018-10-19T19:06:57.918Z,1029.43
2018-10-19T19:08:24.917Z,1029.46
2018-10-19T19:09:52.140Z,1029.50
2018-10-19T19:11:19.571Z,1029.52
2018-10-19T19:12:46.659Z,1029.54
2018-10-19T19:14:14.016Z,1029.51
2018-10-19T19:15:41.298Z,1029.49
2018-10-19T19:17:08.678Z,1029.48
2018-10-19T19:18:35.887Z,1029.47
2018-10-19T19:20:03.242Z,1029.49
2018-10-19T19:21:30.704Z,1029.50
2018-10-19T19:22:57.757Z,1029.50
2018-10-19T19:24:24.923Z,1029.52
2018-10-19T19:25:52.077Z,1029.51
2018-10-19T19:27:19.362Z,1029.48
2018-10-19T19:28:46.691Z,1029.48
2018-10-19T19:30:14.126Z,1029.49
2018-10-19T19:31:41.205Z,1029.49
2018-10-19T19:33:08.593Z,1029.50
2018-10-19T19:34:35.935Z,1029.51
2018-10-19T19:36:03.219Z,1029.53
2018-10-19T19:37:30.368Z,1029.51
2018-10-19T19:38:57.565Z,1029.53
2018-10-19T19:40:24.979Z,1029.54
2018-10-19T19:41:52.005Z,1029.53
2018-10-19T19:43:19.589Z,1029.53
2018-10-19T19:44:46.866Z,1029.53
2018-10-19T19:46:14.238Z,1029.52
2018-10-19T19:47:41.578Z,1029.54
2018-10-19T19:49:08.769Z,1029.57
2018-10-19T19:50:35.838Z,1029.58
2018-10-19T19:52:03.060Z,1029.58
2018-10-19T19:53:30.292Z,1029.57
2018-10-19T19:54:57.629Z,1029.58
2018-10-19T19:56:24.902Z,1029.59
2018-10-19T19:57:52.186Z,1029.60
2018-10-19T19:59:19.215Z,1029.60
2018-10-19T20:00:46.427Z,1029.61
2018-10-19T20:02:13.871Z,1029.61
2018-10-19T20:03:40.945Z,1029.62
2018-10-19T20:05:08.129Z,1029.60
2018-10-19T20:06:35.191Z,1029.58
2018-10-19T20:08:02.666Z,1029.60
2018-10-19T20:09:29.867Z,1029.60
2018-10-19T20:10:57.333Z,1029.58
2018-10-19T20:12:24.448Z,1029.56
2018-10-19T20:13:51.667Z,1029.55
2018-10-19T20:15:18.919Z,1029.54
2018-10-19T20:16:46.294Z,1029.53
2018-10-19T20:18:13.540Z,1029.50
2018-10-19T20:19:40.796Z,1029.51
2018-10-19T20:21:08.327Z,1029.50
2018-10-19T20:22:35.394Z,1029.51